createdAt,value
2022-08-11T00:01:12.806Z,19.17
2022-08-11T00:04:15.508Z,18.95
2022-08-11T00:07:17.265Z,18.93
2022-08-11T00:10:20.417Z,19.08
2022-08-11T00:13:22.511Z,18.90
2022-08-11T00:16:25.703Z,19.01
2022-08-11T00:20:12.299Z,19.06
2022-08-11T00:22:50.416Z,19.00
2022-08-11T00:25:52.428Z,18.79
2022-08-11T00:28:54.716Z,18.89
2022-08-11T00:31:58.739Z,18.84
2022-08-11T00:35:52.076Z,18.91
2022-08-11T00:38:24.374Z,18.90
2022-08-11T00:41:32.351Z,18.53
2022-08-11T00:44:40.214Z,18.74
2022-08-11T00:47:48.767Z,18.69
2022-08-11T00:51:00.227Z,18.68
2022-08-11T00:54:06.513Z,18.70
2022-08-11T00:57:36.007Z,18.73
2022-08-11T01:00:49.673Z,18.65
2022-08-11T01:04:07.549Z,18.59
2022-08-11T01:08:02.875Z,18.42
2022-08-11T01:11:09.011Z,18.08
2022-08-11T01:14:33.978Z,18.33
2022-08-11T01:17:54.691Z,18.05
2022-08-11T01:21:14.466Z,18.29
2022-08-11T01:24:34.950Z,18.38
2022-08-11T01:27:57.851Z,18.16
2022-08-11T01:31:17.841Z,18.13
2022-08-11T01:34:34.208Z,17.98
2022-08-11T01:37:51.269Z,18.12
2022-08-11T01:41:10.814Z,18.17
2022-08-11T01:44:18.347Z,18.18
2022-08-11T01:47:26.790Z,18.05
2022-08-11T01:50:37.672Z,18.01
2022-08-11T01:53:47.013Z,17.97
2022-08-11T01:56:58.465Z,18.00
2022-08-11T02:00:06.732Z,17.89
2022-08-11T02:03:11.835Z,17.96
2022-08-11T02:06:19.621Z,17.82
2022-08-11T02:09:26.932Z,17.73
2022-08-11T02:12:52.693Z,17.79
2022-08-11T02:16:03.970Z,17.71
2022-08-11T02:19:11.404Z,17.65
2022-08-11T02:22:16.461Z,17.58
2022-08-11T02:25:22.584Z,17.56
2022-08-11T02:28:28.109Z,17.70
2022-08-11T02:32:24.342Z,17.63
2022-08-11T02:35:08.890Z,17.66
2022-08-11T02:38:14.877Z,17.55
2022-08-11T02:41:22.128Z,17.48
2022-08-11T02:44:31.639Z,17.51
2022-08-11T02:47:40.087Z,17.53
2022-08-11T02:50:47.990Z,17.16
2022-08-11T02:53:58.111Z,17.09
2022-08-11T02:57:02.826Z,17.26
2022-08-11T03:00:08.022Z,17.14
2022-08-11T03:03:15.381Z,17.10
2022-08-11T03:06:24.100Z,17.06
2022-08-11T03:09:30.018Z,16.94
2022-08-11T03:12:36.708Z,17.13
2022-08-11T03:15:47.833Z,17.26
2022-08-11T03:18:54.106Z,17.28
2022-08-11T03:22:06.268Z,17.24
2022-08-11T03:25:13.121Z,17.31
2022-08-11T03:28:21.211Z,17.12
2022-08-11T03:31:27.243Z,17.01
2022-08-11T03:34:31.352Z,17.06
2022-08-11T03:37:40.917Z,16.93
2022-08-11T03:40:51.984Z,17.05
2022-08-11T03:44:00.153Z,16.91
2022-08-11T03:47:24.891Z,16.95
2022-08-11T03:50:32.138Z,16.63
2022-08-11T03:53:40.898Z,16.71
2022-08-11T03:56:57.483Z,16.77
2022-08-11T04:00:05.916Z,16.77
2022-08-11T04:03:31.062Z,16.75
2022-08-11T04:06:47.728Z,16.97
2022-08-11T04:10:13.429Z,16.72
2022-08-11T04:13:41.945Z,16.73
2022-08-11T04:16:46.773Z,16.66
2022-08-11T04:20:04.324Z,16.69
2022-08-11T04:24:34.742Z,16.85
2022-08-11T04:26:54.533Z,16.90
2022-08-11T04:30:05.935Z,16.65
2022-08-11T04:33:34.900Z,16.74
2022-08-11T04:36:53.982Z,16.74
2022-08-11T04:40:31.102Z,16.66
2022-08-11T04:44:02.881Z,16.71
2022-08-11T04:47:14.376Z,16.68
2022-08-11T04:50:20.996Z,16.59
2022-08-11T04:53:30.160Z,16.62
2022-08-11T04:56:33.188Z,16.75
2022-08-11T04:59:49.058Z,16.82
2022-08-11T05:03:17.397Z,16.76
2022-08-11T05:06:39.729Z,16.79
2022-08-11T05:10:02.569Z,16.62
2022-08-11T05:13:06.023Z,16.58
2022-08-11T05:16:09.757Z,16.70
2022-08-11T05:19:16.184Z,16.77
2022-08-11T05:22:20.334Z,16.78
2022-08-11T05:26:45.269Z,16.89
2022-08-11T05:28:51.869Z,16.96
2022-08-11T05:31:58.888Z,16.98
2022-08-11T05:35:02.486Z,16.89
2022-08-11T05:38:09.714Z,16.99
2022-08-11T05:41:13.130Z,16.79
2022-08-11T05:44:19.869Z,16.78
2022-08-11T05:47:24.625Z,16.91
2022-08-11T05:50:31.044Z,17.08
2022-08-11T05:53:36.026Z,17.13
2022-08-11T05:56:50.901Z,17.07
2022-08-11T05:59:58.677Z,17.08
2022-08-11T06:03:01.586Z,17.14
2022-08-11T06:06:08.327Z,17.17
2022-08-11T06:09:10.294Z,17.14
2022-08-11T06:12:18.988Z,17.07
2022-08-11T06:15:20.759Z,16.99
2022-08-11T06:18:22.925Z,17.13
2022-08-11T06:21:24.846Z,17.18
2022-08-11T06:24:26.963Z,17.06
2022-08-11T06:27:31.644Z,16.99
2022-08-11T06:30:34.208Z,17.18
2022-08-11T06:33:39.549Z,17.28
2022-08-11T06:36:46.531Z,17.41
2022-08-11T06:39:52.427Z,17.46
2022-08-11T06:42:58.545Z,17.38
2022-08-11T06:46:01.576Z,17.45
2022-08-11T06:49:03.894Z,17.43
2022-08-11T06:52:07.352Z,17.53
2022-08-11T06:55:57.640Z,17.39
2022-08-11T06:58:53.609Z,17.54
2022-08-11T07:02:07.399Z,17.57
2022-08-11T07:05:11.973Z,17.66
2022-08-11T07:08:35.945Z,17.78
2022-08-11T07:12:25.337Z,17.88
2022-08-11T07:16:12.655Z,17.86
2022-08-11T07:18:55.749Z,17.95
2022-08-11T07:22:01.049Z,17.98
2022-08-11T07:25:08.673Z,18.14
2022-08-11T07:28:22.763Z,18.20
2022-08-11T07:31:35.639Z,18.34
2022-08-11T07:34:40.520Z,18.36
2022-08-11T07:37:43.671Z,18.43
2022-08-11T07:40:47.773Z,18.42
2022-08-11T07:43:51.597Z,18.47
2022-08-11T07:46:55.060Z,18.57
2022-08-11T07:49:56.896Z,18.58
2022-08-11T07:52:59.528Z,18.67
2022-08-11T07:56:01.877Z,18.80
2022-08-11T07:59:08.262Z,18.87
2022-08-11T08:02:12.702Z,19.11
2022-08-11T08:05:15.558Z,19.09
2022-08-11T08:08:17.637Z,19.09
2022-08-11T08:11:23.933Z,19.21
2022-08-11T08:14:29.521Z,19.23
2022-08-11T08:17:32.923Z,19.26
2022-08-11T08:20:36.535Z,19.31
2022-08-11T08:23:38.661Z,19.30
2022-08-11T08:26:40.897Z,19.54
2022-08-11T08:29:43.914Z,19.65
2022-08-11T08:32:47.144Z,19.66
2022-08-11T08:35:54.798Z,19.75
2022-08-11T08:38:58.057Z,19.89
2022-08-11T08:42:01.867Z,19.91
2022-08-11T08:45:05.320Z,20.07
2022-08-11T08:48:11.965Z,20.11
2022-08-11T08:51:14.276Z,20.16
2022-08-11T08:54:17.676Z,20.23
2022-08-11T08:57:19.730Z,20.27
2022-08-11T09:00:23.597Z,20.42
2022-08-11T09:04:06.605Z,20.47
2022-08-11T09:06:51.619Z,20.49
2022-08-11T09:09:56.933Z,20.71
2022-08-11T09:12:59.492Z,20.73
2022-08-11T09:16:01.315Z,20.67
2022-08-11T09:19:04.574Z,20.75
2022-08-11T09:22:06.700Z,20.91
2022-08-11T09:25:08.737Z,20.85
2022-08-11T09:28:11.416Z,21.01
2022-08-11T09:31:14.165Z,21.07
2022-08-11T09:34:17.268Z,21.13
2022-08-11T09:37:53.880Z,21.39
2022-08-11T09:40:43.680Z,21.49
2022-08-11T09:43:47.269Z,21.56
2022-08-11T09:46:49.909Z,21.48
2022-08-11T09:49:56.962Z,21.53
2022-08-11T09:53:37.157Z,21.77
2022-08-11T09:56:23.202Z,21.89
2022-08-11T09:59:24.898Z,21.79
2022-08-11T10:02:28.040Z,21.90
2022-08-11T10:05:32.357Z,21.79
2022-08-11T10:08:37.506Z,21.85
2022-08-11T10:11:40.753Z,21.77
2022-08-11T10:14:44.918Z,21.92
2022-08-11T10:17:48.817Z,21.97
2022-08-11T10:20:53.147Z,22.16
2022-08-11T10:24:01.356Z,22.30
2022-08-11T10:27:07.843Z,22.18
2022-08-11T10:30:10.384Z,22.53
2022-08-11T10:33:18.975Z,22.70
2022-08-11T10:36:38.024Z,22.58
2022-08-11T10:39:40.591Z,22.71
2022-08-11T10:42:57.218Z,22.80
2022-08-11T10:45:59.945Z,22.73
2022-08-11T10:49:01.932Z,22.71
2022-08-11T10:52:05.245Z,22.80
2022-08-11T10:55:07.249Z,22.96
2022-08-11T10:58:09.922Z,22.86
2022-08-11T11:01:12.373Z,23.07
2022-08-11T11:04:15.732Z,23.27
2022-08-11T11:07:20.976Z,23.33
2022-08-11T11:10:22.740Z,23.44
2022-08-11T11:13:24.931Z,23.45
2022-08-11T11:16:27.367Z,23.66
2022-08-11T11:19:29.327Z,23.65
2022-08-11T11:22:32.628Z,23.84
2022-08-11T11:25:44.984Z,23.87
2022-08-11T11:29:03.077Z,24.18
2022-08-11T11:32:25.821Z,24.26
2022-08-11T11:35:36.305Z,23.81
2022-08-11T11:38:40.544Z,24.06
2022-08-11T11:41:42.775Z,24.21
2022-08-11T11:44:44.842Z,24.10
2022-08-11T11:47:47.937Z,24.08
2022-08-11T11:50:53.711Z,24.29
2022-08-11T11:53:58.892Z,24.26
2022-08-11T11:57:01.719Z,24.33
2022-08-11T12:00:04.366Z,24.19
2022-08-11T12:03:07.857Z,24.36
2022-08-11T12:06:11.055Z,24.52
2022-08-11T12:09:14.988Z,24.67
2022-08-11T12:12:19.588Z,24.85
2022-08-11T12:16:04.197Z,24.90
2022-08-11T12:18:45.842Z,24.86
2022-08-11T12:21:51.516Z,24.54
2022-08-11T12:25:04.669Z,24.75
2022-08-11T12:28:06.540Z,25.03
2022-08-11T12:31:08.534Z,25.04
2022-08-11T12:34:11.070Z,25.11
2022-08-11T12:37:14.073Z,25.24
2022-08-11T12:40:42.648Z,25.44
2022-08-11T12:43:44.396Z,25.56
2022-08-11T12:46:59.813Z,25.58
2022-08-11T12:50:01.912Z,25.65
2022-08-11T12:53:07.057Z,25.72
2022-08-11T12:56:11.157Z,25.72
2022-08-11T12:59:13.867Z,25.85
2022-08-11T13:02:16.366Z,25.54
2022-08-11T13:05:18.273Z,25.78
2022-08-11T13:08:22.038Z,25.89
2022-08-11T13:11:25.488Z,25.78
2022-08-11T13:14:47.136Z,25.75
2022-08-11T13:17:49.765Z,25.51
2022-08-11T13:20:51.980Z,25.69
2022-08-11T13:24:00.636Z,25.08
2022-08-11T13:27:06.578Z,24.70
2022-08-11T13:30:08.677Z,24.98
2022-08-11T13:33:11.331Z,25.26
2022-08-11T13:36:13.241Z,25.19
2022-08-11T13:39:15.227Z,25.28
2022-08-11T13:42:20.421Z,25.43
2022-08-11T13:45:23.189Z,25.60
2022-08-11T13:48:25.759Z,25.78
2022-08-11T13:51:34.030Z,25.69
2022-08-11T13:54:37.642Z,25.84
2022-08-11T13:58:06.770Z,25.65
2022-08-11T14:02:03.631Z,25.53
2022-08-11T14:04:28.924Z,25.60
2022-08-11T14:07:35.285Z,25.43
2022-08-11T14:10:38.067Z,25.12
2022-08-11T14:13:48.080Z,25.38
2022-08-11T14:16:52.045Z,25.24
2022-08-11T14:19:53.930Z,25.39
2022-08-11T14:22:55.680Z,25.79
2022-08-11T14:26:00.086Z,26.05
2022-08-11T14:29:07.313Z,25.72
2022-08-11T14:32:10.596Z,25.91
2022-08-11T14:35:12.335Z,25.56
2022-08-11T14:38:14.099Z,25.66
2022-08-11T14:41:16.171Z,25.55
2022-08-11T14:44:19.796Z,25.74
2022-08-11T14:47:23.798Z,25.87
2022-08-11T14:50:27.554Z,26.24
2022-08-11T14:53:29.216Z,26.36
2022-08-11T14:56:30.969Z,26.18
2022-08-11T14:59:34.324Z,26.32
2022-08-11T15:02:38.088Z,26.61
2022-08-11T15:05:41.377Z,26.46
2022-08-11T15:08:42.998Z,26.65
2022-08-11T15:11:45.612Z,26.83
2022-08-11T15:14:49.306Z,27.15
2022-08-11T15:17:58.345Z,27.12
2022-08-11T15:20:59.968Z,27.34
2022-08-11T15:24:01.695Z,27.48
2022-08-11T15:27:05.336Z,27.53
2022-08-11T15:30:09.350Z,27.43
2022-08-11T15:33:18.544Z,27.46
2022-08-11T15:36:20.767Z,27.46
2022-08-11T15:39:24.885Z,27.61
2022-08-11T15:42:27.309Z,27.82
2022-08-11T15:45:30.861Z,28.21
2022-08-11T15:48:39.209Z,28.41
2022-08-11T15:51:42.647Z,28.39
2022-08-11T15:54:45.149Z,28.16
2022-08-11T15:57:48.495Z,27.84
2022-08-11T16:00:58.787Z,27.45
2022-08-11T16:04:09.049Z,27.12
2022-08-11T16:07:12.925Z,27.00
2022-08-11T16:10:18.833Z,26.95
2022-08-11T16:13:22.003Z,26.89
2022-08-11T16:16:26.262Z,26.96
2022-08-11T16:19:29.467Z,27.35
2022-08-11T16:22:33.114Z,27.40
2022-08-11T16:27:01.926Z,27.36
2022-08-11T16:28:58.202Z,27.23
2022-08-11T16:32:02.577Z,27.14
2022-08-11T16:35:06.138Z,27.25
2022-08-11T16:38:08.612Z,26.81
2022-08-11T16:41:11.933Z,26.98
2022-08-11T16:44:14.683Z,26.68
2022-08-11T16:47:18.444Z,26.56
2022-08-11T16:50:41.251Z,26.33
2022-08-11T16:53:54.710Z,26.02
2022-08-11T16:57:16.133Z,25.89
2022-08-11T17:00:20.241Z,26.09
2022-08-11T17:03:23.263Z,26.16
2022-08-11T17:06:25.055Z,26.05
2022-08-11T17:09:29.795Z,26.09
2022-08-11T17:12:33.550Z,26.16
2022-08-11T17:15:36.484Z,25.76
2022-08-11T17:18:45.082Z,25.86
2022-08-11T17:21:48.052Z,25.90
2022-08-11T17:24:50.449Z,25.89
2022-08-11T17:27:52.462Z,25.83
2022-08-11T17:30:54.902Z,25.93
2022-08-11T17:33:58.530Z,26.02
2022-08-11T17:37:00.248Z,26.17
2022-08-11T17:40:03.480Z,26.23
2022-08-11T17:43:06.820Z,26.35
2022-08-11T17:46:08.588Z,26.38
2022-08-11T17:49:12.839Z,26.30
2022-08-11T17:52:14.842Z,26.19
2022-08-11T17:55:17.118Z,26.11
2022-08-11T17:58:40.715Z,25.77
2022-08-11T18:01:44.439Z,25.52
2022-08-11T18:04:49.299Z,25.53
2022-08-11T18:07:52.757Z,25.37
2022-08-11T18:10:55.551Z,25.27
2022-08-11T18:13:57.430Z,25.20
2022-08-11T18:17:03.847Z,24.45
2022-08-11T18:20:10.054Z,24.58
2022-08-11T18:23:16.372Z,24.55
2022-08-11T18:26:20.976Z,24.60
2022-08-11T18:29:22.771Z,24.54
2022-08-11T18:32:46.211Z,24.51
2022-08-11T18:35:50.566Z,24.38
2022-08-11T18:38:53.296Z,24.32
2022-08-11T18:41:58.242Z,24.33
2022-08-11T18:45:01.640Z,24.33
2022-08-11T18:48:06.480Z,24.37
2022-08-11T18:51:31.558Z,24.31
2022-08-11T18:54:36.707Z,24.15
2022-08-11T18:57:49.528Z,24.06
2022-08-11T19:00:57.471Z,23.91
2022-08-11T19:04:02.278Z,23.76
2022-08-11T19:07:17.375Z,23.66
2022-08-11T19:10:22.032Z,23.13
2022-08-11T19:13:24.429Z,23.29
2022-08-11T19:16:26.443Z,23.31
2022-08-11T19:19:29.216Z,23.39
2022-08-11T19:22:33.095Z,23.42
2022-08-11T19:25:35.319Z,23.24
2022-08-11T19:28:39.935Z,23.14
2022-08-11T19:31:44.927Z,23.19
2022-08-11T19:34:47.569Z,23.15
2022-08-11T19:37:51.571Z,23.13
2022-08-11T19:40:54.391Z,23.11
2022-08-11T19:43:56.302Z,23.11
2022-08-11T19:46:58.874Z,23.10
2022-08-11T19:50:00.806Z,23.08
2022-08-11T19:53:04.134Z,23.00
2022-08-11T19:56:19.393Z,22.95
2022-08-11T19:59:21.521Z,23.07
2022-08-11T20:02:23.410Z,22.96
2022-08-11T20:05:25.474Z,22.82
2022-08-11T20:08:30.071Z,22.84
2022-08-11T20:11:33.588Z,22.74
2022-08-11T20:14:37.098Z,22.63
2022-08-11T20:17:40.256Z,22.53
2022-08-11T20:20:41.864Z,22.47
2022-08-11T20:23:47.345Z,22.46
2022-08-11T20:26:49.458Z,22.31
2022-08-11T20:29:51.307Z,22.38
2022-08-11T20:32:52.994Z,22.10
2022-08-11T20:35:54.669Z,22.02
2022-08-11T20:38:58.527Z,22.19
2022-08-11T20:42:01.470Z,22.13
2022-08-11T20:45:03.564Z,22.16
2022-08-11T20:48:06.668Z,22.09
2022-08-11T20:51:11.513Z,22.02
2022-08-11T20:54:20.161Z,22.05
2022-08-11T20:58:00.106Z,22.03
2022-08-11T21:01:03.853Z,21.98
2022-08-11T21:04:06.241Z,21.90
2022-08-11T21:07:08.216Z,21.77
2022-08-11T21:10:17.231Z,21.88
2022-08-11T21:13:29.319Z,21.75
2022-08-11T21:16:34.237Z,21.68
2022-08-11T21:20:01.118Z,21.61
2022-08-11T21:23:05.586Z,21.51
2022-08-11T21:26:11.185Z,21.60
2022-08-11T21:29:13.712Z,21.51
2022-08-11T21:32:16.733Z,21.44
2022-08-11T21:35:18.846Z,21.35
2022-08-11T21:38:20.631Z,21.35
2022-08-11T21:41:24.329Z,21.26
2022-08-11T21:44:26.678Z,21.30
2022-08-11T21:47:42.544Z,21.24
2022-08-11T21:50:45.807Z,20.95
2022-08-11T21:53:48.339Z,20.92
2022-08-11T21:56:52.499Z,20.93
2022-08-11T21:59:56.820Z,20.97
2022-08-11T22:02:58.840Z,20.49
2022-08-11T22:06:00.532Z,20.52
2022-08-11T22:09:02.206Z,20.42
2022-08-11T22:12:30.126Z,20.45
2022-08-11T22:15:27.585Z,20.53
2022-08-11T22:18:29.995Z,20.61
2022-08-11T22:22:03.108Z,20.59
2022-08-11T22:24:53.934Z,20.55
2022-08-11T22:27:57.097Z,20.45
2022-08-11T22:31:00.095Z,20.49
2022-08-11T22:34:03.140Z,20.33
2022-08-11T22:37:05.348Z,20.38
2022-08-11T22:40:07.946Z,20.51
2022-08-11T22:43:11.037Z,20.48
2022-08-11T22:46:12.976Z,20.49
2022-08-11T22:49:16.246Z,20.46
2022-08-11T22:52:18.687Z,20.38
2022-08-11T22:55:20.880Z,20.44
2022-08-11T22:58:24.433Z,20.38
2022-08-11T23:01:26.299Z,20.23
2022-08-11T23:04:28.325Z,20.27
2022-08-11T23:07:50.038Z,20.16
2022-08-11T23:10:52.309Z,20.12
2022-08-11T23:13:55.630Z,20.04
2022-08-11T23:16:57.531Z,20.06
2022-08-11T23:20:09.921Z,20.14
2022-08-11T23:23:21.814Z,20.05
2022-08-11T23:26:24.714Z,20.04
2022-08-11T23:29:28.447Z,19.97
2022-08-11T23:32:30.921Z,19.77
2022-08-11T23:35:39.884Z,19.77
2022-08-11T23:38:42.307Z,19.51
2022-08-11T23:41:44.195Z,19.36
2022-08-11T23:44:47.553Z,19.48
2022-08-11T23:47:50.858Z,19.24
2022-08-11T23:50:52.909Z,19.27
2022-08-11T23:53:55.497Z,19.43
2022-08-11T23:56:57.361Z,19.11
